Time;durP1;ratioP1;P1;durP2;ratioP2;P2;SDS_P1;SDS_P2;PMS_P1;PMS_P2;Temp;Humidity;BMP_temperature;BMP_pressure;BME280_temperature;BME280_humidity;BME280_pressure;Samples;Min_cycle;Max_cycle;Signal;HPM_P1;HPM_P2
2023/02/26 00:00:43;;;;;;;;;;;;;;;0.61;84.81;98640.64;103085;1256;125191;-66
2023/02/26 00:03:31;;;;;;;;;;;;;;;0.56;84.60;98642.95;103147;1258;110820;-66
2023/02/26 00:06:01;;;;;;;;;;;;;;;0.53;84.47;98644.18;102393;1257;1002896;-66
2023/02/26 00:08:27;;;;;;;;;;;;;;;0.51;84.41;98653.11;103092;1257;125523;-66
2023/02/26 00:10:56;;;;;;;;;;;;;;;0.48;84.29;98652.48;103142;1260;108753;-66
2023/02/26 00:13:25;;;;;;;;;;;;;;;0.45;83.80;98656.81;103969;1256;126486;-67
2023/02/26 00:15:55;;;;;;;;;;;;;;;0.42;83.65;98662.34;103219;1256;109992;-67
2023/02/26 00:18:24;;;;;;;;;;;;;;;0.41;83.75;98673.30;103191;1258;124446;-66
2023/02/26 00:20:52;;;;;;;;;;;;;;;0.41;83.94;98673.64;103680;1257;96536;-66
2023/02/26 00:23:28;;;;;;;;;;;;;;;0.38;84.00;98682.23;103912;1257;106065;-66
2023/02/26 00:26:15;;;;;;;;;;;;;;;0.40;84.01;98689.05;103926;1256;125244;-66
2023/02/26 00:28:44;;;;;;;;;;;;;;;0.37;83.73;98682.42;103171;1256;109784;-66
2023/02/26 00:31:31;;;;;;;;;;;;;;;0.36;83.32;98685.02;102340;1256;1002999;-66
2023/02/26 00:34:11;;;;;;;;;;;;;;;0.32;82.69;98687.96;103560;1256;96308;-65
2023/02/26 00:36:42;;;;;;;;;;;;;;;0.28;82.58;98689.74;103122;1258;124258;-66
2023/02/26 00:39:28;;;;;;;;;;;;;;;0.24;82.48;98690.50;103823;1257;96427;-66
2023/02/26 00:41:58;;;;;;;;;;;;;;;0.20;82.38;98699.61;103172;1257;110815;-66
2023/02/26 00:44:37;;;;;;;;;;;;;;;0.19;82.29;98698.78;103205;1260;124232;-66
2023/02/26 00:47:08;;;;;;;;;;;;;;;0.15;82.07;98705.99;103208;1256;96483;-66
2023/02/26 00:49:46;;;;;;;;;;;;;;;0.13;81.98;98711.52;101485;1258;1003322;-66
2023/02/26 00:52:39;;;;;;;;;;;;;;;0.09;81.85;98714.83;103085;1256;97644;-66
2023/02/26 00:55:23;;;;;;;;;;;;;;;0.07;81.86;98714.67;103249;1256;124228;-66
2023/02/26 00:58:11;;;;;;;;;;;;;;;0.05;81.82;98722.92;103269;1256;106673;-65
2023/02/26 01:00:37;;;;;;;;;;;;;;;0.04;81.91;98729.25;103078;1256;125002;-65
2023/02/26 01:03:23;;;;;;;;;;;;;;;0.05;81.64;98726.52;102754;1260;109569;-66
2023/02/26 01:05:53;;;;;;;;;;;;;;;0.03;81.49;98735.42;103255;1259;1002220;-66
2023/02/26 01:08:31;;;;;;;;;;;;;;;0.02;81.64;98734.91;102156;1262;1003707;-66
2023/02/26 01:11:01;;;;;;;;;;;;;;;0.04;81.45;98734.90;102760;1260;109860;-66
2023/02/26 01:13:28;;;;;;;;;;;;;;;0.02;81.24;98731.50;103530;1263;125314;-66
2023/02/26 01:15:59;;;;;;;;;;;;;;;0.01;81.13;98738.52;102807;1260;108634;-65
2023/02/26 01:18:41;;;;;;;;;;;;;;;0.01;81.17;98743.14;103166;1261;124526;-65
2023/02/26 01:21:15;;;;;;;;;;;;;;;-0.00;80.88;98743.82;103965;1261;109123;-66
2023/02/26 01:23:51;;;;;;;;;;;;;;;-0.01;80.87;98751.51;103089;1259;108395;-65
2023/02/26 01:26:28;;;;;;;;;;;;;;;-0.01;80.39;98758.17;102638;1264;125773;-65
2023/02/26 01:28:57;;;;;;;;;;;;;;;-0.03;80.38;98767.77;102815;1264;108449;-65
2023/02/26 01:31:39;;;;;;;;;;;;;;;-0.04;80.53;98770.86;102676;1264;124805;-65
2023/02/26 01:34:14;;;;;;;;;;;;;;;-0.04;80.44;98776.84;102117;1256;1003228;-65
2023/02/26 01:36:56;;;;;;;;;;;;;;;-0.04;80.58;98781.80;103014;1257;124836;-65
2023/02/26 01:39:36;;;;;;;;;;;;;;;-0.03;80.61;98787.76;103097;1256;96512;-65
2023/02/26 01:42:19;;;;;;;;;;;;;;;-0.04;80.28;98785.73;103135;1256;107634;-65
2023/02/26 01:44:54;;;;;;;;;;;;;;;-0.07;80.26;98798.91;103116;1256;96579;-65
2023/02/26 01:47:28;;;;;;;;;;;;;;;-0.08;80.08;98806.29;102328;1256;1003533;-65
2023/02/26 01:50:11;;;;;;;;;;;;;;;-0.09;80.04;98805.28;102975;1256;124647;-65
2023/02/26 01:53:00;;;;;;;;;;;;;;;-0.11;79.92;98811.11;103802;1257;96452;-65
2023/02/26 01:55:28;;;;;;;;;;;;;;;-0.12;79.74;98814.03;102908;1261;124429;-65
2023/02/26 01:58:01;;;;;;;;;;;;;;;-0.14;79.46;98816.45;103056;1256;96523;-65
2023/02/26 02:00:47;;;;;;;;;;;;;;;-0.17;79.60;98821.11;102291;1256;1002490;-65
2023/02/26 02:03:24;;;;;;;;;;;;;;;-0.18;79.78;98830.16;103427;1257;107680;-66
2023/02/26 02:05:56;;;;;;;;;;;;;;;-0.19;79.77;98841.95;103009;1256;96429;-66
2023/02/26 02:08:43;;;;;;;;;;;;;;;-0.18;79.78;98851.34;103104;1260;108977;-66
2023/02/26 02:11:29;;;;;;;;;;;;;;;-0.19;79.82;98865.17;103137;1260;96563;-66
2023/02/26 02:14:06;;;;;;;;;;;;;;;-0.18;79.91;98872.69;102983;1260;124684;-66
2023/02/26 02:16:47;;;;;;;;;;;;;;;-0.18;79.77;98879.18;103123;1256;109475;-67
2023/02/26 02:19:48;;;;;;;;;;;;;;;-0.20;79.29;98880.21;102993;1256;124552;-65
2023/02/26 02:22:51;;;;;;;;;;;;;;;-0.23;79.16;98883.16;103061;1256;110174;-65
2023/02/26 02:25:45;;;;;;;;;;;;;;;-0.24;79.11;98891.72;102306;1256;1003030;-65
2023/02/26 02:28:38;;;;;;;;;;;;;;;-0.25;79.36;98898.38;102420;1257;1003306;-65
2023/02/26 02:31:22;;;;;;;;;;;;;;;-0.24;79.48;98912.21;102993;1260;124627;-65
2023/02/26 02:34:03;;;;;;;;;;;;;;;-0.22;79.61;98920.73;102722;1257;1002832;-65
2023/02/26 02:36:52;;;;;;;;;;;;;;;-0.20;79.74;98917.80;102276;1256;1003815;-65
2023/02/26 02:39:40;;;;;;;;;;;;;;;-0.18;79.66;98921.21;103195;1256;96431;-65
2023/02/26 02:42:30;;;;;;;;;;;;;;;-0.15;79.49;98925.97;103022;1260;124710;-66
2023/02/26 02:45:19;;;;;;;;;;;;;;;-0.13;79.37;98921.50;103040;1256;108859;-65
2023/02/26 02:47:58;;;;;;;;;;;;;;;-0.13;79.33;98921.67;103214;1257;96309;-65
2023/02/26 02:50:46;;;;;;;;;;;;;;;-0.12;79.23;98924.23;103003;1258;108227;-65
2023/02/26 02:53:18;;;;;;;;;;;;;;;-0.11;79.19;98924.55;103085;1256;96464;-65
2023/02/26 02:55:48;;;;;;;;;;;;;;;-0.09;79.11;98927.94;103011;1256;124311;-65
2023/02/26 02:58:38;;;;;;;;;;;;;;;-0.09;79.03;98930.50;103115;1256;108175;-65
2023/02/26 03:01:16;;;;;;;;;;;;;;;-0.09;78.85;98932.38;103902;1250;96336;-66
2023/02/26 04:11:24;;;;;;;;;;;;;;;-0.03;78.27;99050.91;99249;1295;1003626;-65
2023/02/26 04:14:10;;;;;;;;;;;;;;;-0.04;78.46;99057.40;103467;1257;123666;-65
2023/02/26 04:16:57;;;;;;;;;;;;;;;-0.03;78.25;99065.08;103148;1260;107419;-65
2023/02/26 04:19:26;;;;;;;;;;;;;;;-0.03;78.11;99070.38;103116;1262;123757;-66
2023/02/26 04:22:03;;;;;;;;;;;;;;;-0.02;78.39;99076.01;103234;1257;107226;-65
2023/02/26 04:24:43;;;;;;;;;;;;;;;-0.01;78.47;99079.08;98430;1259;5398000;-65
2023/02/26 04:27:29;;;;;;;;;;;;;;;0.02;78.44;99082.52;103279;1254;123689;-65
2023/02/26 04:30:15;;;;;;;;;;;;;;;0.03;78.61;99088.29;103361;1259;108254;-65
2023/02/26 04:33:01;;;;;;;;;;;;;;;0.06;78.62;99094.08;103170;1254;123786;-65
2023/02/26 04:35:47;;;;;;;;;;;;;;;0.08;78.58;99092.35;102856;1265;108828;-65
2023/02/26 04:38:33;;;;;;;;;;;;;;;0.09;78.54;99093.53;102877;1262;123996;-65
2023/02/26 04:41:08;;;;;;;;;;;;;;;0.10;78.48;99096.95;102934;1264;109102;-65
2023/02/26 04:43:54;;;;;;;;;;;;;;;0.10;78.44;99097.96;102825;1259;124151;-65
2023/02/26 04:46:40;;;;;;;;;;;;;;;0.08;78.46;99100.72;102879;1265;95284;-65
2023/02/26 04:49:26;;;;;;;;;;;;;;;0.08;78.67;99104.65;103188;1260;123784;-66
2023/02/26 04:52:06;;;;;;;;;;;;;;;0.09;78.73;99106.52;103999;1261;94178;-66
2023/02/26 04:54:41;;;;;;;;;;;;;;;0.10;78.73;99109.60;103474;1265;109714;-65
2023/02/26 04:57:12;;;;;;;;;;;;;;;0.10;78.70;99115.41;102768;1265;124260;-65
2023/02/26 04:59:38;;;;;;;;;;;;;;;0.09;78.74;99118.99;102120;1267;1003126;-65
2023/02/26 05:02:17;;;;;;;;;;;;;;;0.10;78.67;99122.07;102664;1261;124536;-65
2023/02/26 05:05:04;;;;;;;;;;;;;;;0.10;78.62;99124.63;102789;1265;95080;-65
2023/02/26 05:07:40;;;;;;;;;;;;;;;0.09;78.43;99127.04;103325;1256;124433;-65
2023/02/26 05:10:16;;;;;;;;;;;;;;;0.06;78.19;99130.48;103894;1259;107640;-65
2023/02/26 05:12:50;;;;;;;;;;;;;;;0.01;77.77;99136.67;102919;1254;1003137;-65
2023/02/26 05:15:36;;;;;;;;;;;;;;;-0.03;77.94;99143.00;102896;1257;1003290;-65
2023/02/26 05:18:16;;;;;;;;;;;;;;;-0.05;77.90;99151.56;103351;1259;95416;-65
2023/02/26 05:20:44;;;;;;;;;;;;;;;-0.05;77.85;99156.52;103120;1259;123856;-65
2023/02/26 05:23:13;;;;;;;;;;;;;;;-0.07;77.73;99162.17;103668;1257;107442;-65
2023/02/26 05:25:50;;;;;;;;;;;;;;;-0.08;77.73;99162.19;103254;1259;124807;-65
2023/02/26 05:28:26;;;;;;;;;;;;;;;-0.09;77.72;99165.77;103215;1256;107145;-65
2023/02/26 05:31:12;;;;;;;;;;;;;;;-0.11;77.62;99172.29;103358;1257;95427;-65
2023/02/26 05:33:56;;;;;;;;;;;;;;;-0.11;77.51;99176.73;103742;1257;108534;-66
2023/02/26 05:36:21;;;;;;;;;;;;;;;-0.10;77.56;99180.31;103700;1257;108840;-65
2023/02/26 05:38:52;;;;;;;;;;;;;;;-0.11;77.30;99185.61;103384;1261;123995;-65
2023/02/26 05:41:38;;;;;;;;;;;;;;;-0.13;77.23;99187.85;103155;1260;108352;-65
2023/02/26 05:44:14;;;;;;;;;;;;;;;-0.14;77.12;99195.03;103126;1258;123931;-65
2023/02/26 05:47:01;;;;;;;;;;;;;;;-0.17;77.29;99207.70;103249;1256;108963;-65
2023/02/26 05:49:47;;;;;;;;;;;;;;;-0.20;77.17;99215.72;103557;1260;124168;-64
2023/02/26 05:52:16;;;;;;;;;;;;;;;-0.22;77.03;99228.88;102847;1257;1003454;-65
2023/02/26 05:55:02;;;;;;;;;;;;;;;-0.27;75.87;99230.45;103213;1259;108083;-65
2023/02/26 05:57:47;;;;;;;;;;;;;;;-0.38;75.52;99239.39;102538;1259;1003069;-65
2023/02/26 06:00:24;;;;;;;;;;;;;;;-0.45;75.12;99247.11;103186;1258;108609;-65
2023/02/26 06:03:00;;;;;;;;;;;;;;;-0.52;74.30;99252.26;103507;1260;124347;-65
2023/02/26 06:05:39;;;;;;;;;;;;;;;-0.59;74.41;99262.68;103454;1257;95125;-65
2023/02/26 06:08:08;;;;;;;;;;;;;;;-0.62;74.44;99269.35;102668;1257;1003178;-66
2023/02/26 06:10:47;;;;;;;;;;;;;;;-0.65;73.95;99269.20;102718;1258;1002940;-66
2023/02/26 06:13:16;;;;;;;;;;;;;;;-0.70;73.11;99281.16;104261;1257;109043;-66
2023/02/26 06:15:45;;;;;;;;;;;;;;;-0.74;73.33;99282.52;103034;1257;123867;-65
2023/02/26 06:18:32;;;;;;;;;;;;;;;-0.75;72.85;99285.08;103244;1260;95217;-65
2023/02/26 06:21:18;;;;;;;;;;;;;;;-0.77;72.98;99291.58;103943;1259;124394;-65
2023/02/26 06:24:05;;;;;;;;;;;;;;;-0.78;72.47;99291.92;103272;1259;95080;-65
2023/02/26 06:26:42;;;;;;;;;;;;;;;-0.82;72.53;99300.64;103322;1257;124390;-65
2023/02/26 06:29:28;;;;;;;;;;;;;;;-0.86;72.46;99305.27;103775;1254;106793;-65
2023/02/26 06:32:05;;;;;;;;;;;;;;;-0.89;72.64;99313.79;103187;1260;124186;-65
2023/02/26 06:34:51;;;;;;;;;;;;;;;-0.89;73.01;99320.46;103329;1254;108336;-65
2023/02/26 06:37:37;;;;;;;;;;;;;;;-0.90;72.99;99326.74;103307;1258;124482;-66
2023/02/26 06:40:10;;;;;;;;;;;;;;;-0.91;73.03;99335.10;103547;1255;108625;-65
2023/02/26 06:42:57;;;;;;;;;;;;;;;-0.90;73.17;99339.38;103564;1259;108583;-65
2023/02/26 06:45:35;;;;;;;;;;;;;;;-0.89;73.20;99341.61;103259;1260;123887;-65
2023/02/26 06:48:21;;;;;;;;;;;;;;;-0.88;73.01;99348.10;103307;1259;108596;-65
2023/02/26 06:50:57;;;;;;;;;;;;;;;-0.87;72.78;99350.83;101732;1257;1003803;-65
2023/02/26 06:53:42;;;;;;;;;;;;;;;-0.84;72.77;99355.09;103269;1258;109373;-65
2023/02/26 06:56:28;;;;;;;;;;;;;;;-0.82;72.56;99360.89;104215;1256;124282;-65
2023/02/26 06:59:04;;;;;;;;;;;;;;;-0.80;72.75;99361.73;103275;1260;94938;-65
2023/02/26 07:01:50;;;;;;;;;;;;;;;-0.75;72.74;99369.06;102945;1260;124208;-65
2023/02/26 07:04:36;;;;;;;;;;;;;;;-0.71;72.06;99371.64;103621;1257;94896;-65
2023/02/26 07:07:16;;;;;;;;;;;;;;;-0.66;72.14;99371.97;103516;1254;108500;-65
2023/02/26 07:10:02;;;;;;;;;;;;;;;-0.60;71.28;99382.38;103315;1255;108772;-65
2023/02/26 07:12:48;;;;;;;;;;;;;;;-0.55;71.25;99389.88;102491;1257;1003438;-65
2023/02/26 07:15:17;;;;;;;;;;;;;;;-0.52;70.62;99391.25;103128;1255;124691;-67
2023/02/26 07:18:03;;;;;;;;;;;;;;;-0.49;70.41;99403.04;103564;1259;95202;-66
2023/02/26 07:20:50;;;;;;;;;;;;;;;-0.45;70.49;99409.34;103169;1254;124171;-66
2023/02/26 07:23:36;;;;;;;;;;;;;;;-0.41;70.31;99411.02;102633;1255;1003710;-66
2023/02/26 07:26:10;;;;;;;;;;;;;;;-0.39;70.20;99412.23;103126;1257;124660;-66
2023/02/26 07:28:46;;;;;;;;;;;;;;;-0.36;70.22;99419.73;103332;1254;107975;-65
2023/02/26 07:31:32;;;;;;;;;;;;;;;-0.33;70.45;99420.09;103447;1254;95778;-65
2023/02/26 07:34:19;;;;;;;;;;;;;;;-0.29;70.47;99425.37;103431;1257;108849;-65
2023/02/26 07:37:04;;;;;;;;;;;;;;;-0.25;70.23;99435.27;103317;1254;108192;-65
2023/02/26 07:39:51;;;;;;;;;;;;;;;-0.23;70.17;99433.04;103199;1256;124199;-65
2023/02/26 07:42:20;;;;;;;;;;;;;;;-0.22;69.82;99438.49;103588;1251;107948;-64
2023/02/26 07:45:08;;;;;;;;;;;;;;;-0.21;69.89;99444.65;103185;1256;124309;-65
2023/02/26 07:47:42;;;;;;;;;;;;;;;-0.19;69.86;99450.79;103880;1256;1002314;-68
2023/02/26 07:50:29;;;;;;;;;;;;;;;-0.16;69.71;99454.58;103313;1255;124320;-66
2023/02/26 07:53:15;;;;;;;;;;;;;;;-0.15;69.64;99461.75;104018;1254;94938;-66
2023/02/26 07:56:01;;;;;;;;;;;;;;;-0.14;69.29;99467.04;103251;1260;124360;-65
2023/02/26 07:58:30;;;;;;;;;;;;;;;-0.14;69.11;99469.27;103046;1261;95534;-67
2023/02/26 08:01:16;;;;;;;;;;;;;;;-0.14;69.08;99472.84;102951;1258;107573;-66
2023/02/26 08:03:51;;;;;;;;;;;;;;;-0.12;69.20;99479.16;104141;1257;124030;-66
2023/02/26 08:06:20;;;;;;;;;;;;;;;-0.09;69.25;99482.06;103050;1263;94984;-65
2023/02/26 08:09:06;;;;;;;;;;;;;;;-0.08;69.08;99483.77;103264;1258;1002237;-66
2023/02/26 08:11:52;;;;;;;;;;;;;;;-0.05;69.43;99490.24;104138;1257;93387;-65
2023/02/26 08:14:40;;;;;;;;;;;;;;;0.03;69.93;99492.81;103809;1261;124035;-65
2023/02/26 08:17:26;;;;;;;;;;;;;;;0.12;69.87;99500.48;103165;1257;1003228;-66
2023/02/26 08:20:14;;;;;;;;;;;;;;;0.21;69.74;99498.94;102475;1257;1003196;-69
2023/02/26 08:22:51;;;;;;;;;;;;;;;0.27;69.57;99509.84;103322;1261;107356;-68
2023/02/26 08:25:19;;;;;;;;;;;;;;;0.32;69.35;99513.58;103569;1257;1002352;-65
2023/02/26 08:27:45;;;;;;;;;;;;;;;0.31;68.41;99522.83;102641;1254;1002903;-66
2023/02/26 08:30:14;;;;;;;;;;;;;;;0.27;68.25;99521.65;103476;1253;107939;-66
2023/02/26 08:33:00;;;;;;;;;;;;;;;0.21;67.45;99527.14;103286;1256;124024;-66
2023/02/26 08:35:46;;;;;;;;;;;;;;;0.17;68.06;99533.10;103464;1254;109036;-65
2023/02/26 08:38:31;;;;;;;;;;;;;;;0.16;68.18;99535.67;104036;1254;124348;-66
2023/02/26 08:41:17;;;;;;;;;;;;;;;0.14;68.04;99537.73;102622;1255;1003315;-66
2023/02/26 08:44:04;;;;;;;;;;;;;;;0.10;67.77;99540.14;103350;1251;124658;-68
2023/02/26 08:46:50;;;;;;;;;;;;;;;0.06;67.81;99545.97;102896;1256;1002600;-65
2023/02/26 08:49:36;;;;;;;;;;;;;;;0.02;67.74;99545.97;103454;1256;124823;-66
2023/02/26 08:52:13;;;;;;;;;;;;;;;-0.06;67.50;99561.86;103452;1256;96760;-66
2023/02/26 08:54:42;;;;;;;;;;;;;;;-0.09;67.98;99564.42;103709;1254;110576;-67
2023/02/26 08:57:14;;;;;;;;;;;;;;;-0.08;68.37;99575.70;103365;1254;124380;-67
2023/02/26 08:59:43;;;;;;;;;;;;;;;-0.06;68.58;99576.89;102767;1254;1003381;-65
2023/02/26 09:02:12;;;;;;;;;;;;;;;-0.02;68.32;99583.55;103245;1253;124766;-65
2023/02/26 09:04:58;;;;;;;;;;;;;;;-0.01;67.66;99588.51;102765;1257;1003508;-65
2023/02/26 09:07:27;;;;;;;;;;;;;;;0.00;67.67;99598.26;103479;1256;110801;-65
2023/02/26 09:10:14;;;;;;;;;;;;;;;0.03;67.79;99600.66;103453;1254;109531;-63
2023/02/26 09:12:49;;;;;;;;;;;;;;;0.08;67.99;99605.95;103442;1253;96447;-64
2023/02/26 09:15:15;;;;;;;;;;;;;;;0.10;67.83;99611.25;103743;1253;125169;-64
2023/02/26 09:17:54;;;;;;;;;;;;;;;0.13;67.91;99613.29;103784;1254;96452;-65
2023/02/26 09:20:30;;;;;;;;;;;;;;;0.13;67.57;99620.47;103246;1254;124320;-65
2023/02/26 09:23:16;;;;;;;;;;;;;;;0.17;67.83;99625.77;103911;1253;1002186;-66
2023/02/26 09:26:02;;;;;;;;;;;;;;;0.22;67.93;99629.54;104649;1253;124926;-66
2023/02/26 09:28:48;;;;;;;;;;;;;;;0.27;67.69;99631.92;104012;1254;108787;-64
2023/02/26 09:31:35;;;;;;;;;;;;;;;0.31;67.67;99633.80;103611;1256;96496;-66
2023/02/26 09:34:13;;;;;;;;;;;;;;;0.34;67.25;99637.38;103336;1256;111997;-66
2023/02/26 09:36:59;;;;;;;;;;;;;;;0.33;67.18;99644.73;103058;1254;109481;-65
2023/02/26 09:39:36;;;;;;;;;;;;;;;0.33;67.27;99642.69;102336;1254;1003000;-65
2023/02/26 09:42:22;;;;;;;;;;;;;;;0.36;67.40;99645.95;103244;1254;108285;-66
2023/02/26 09:45:12;;;;;;;;;;;;;;;0.34;67.46;99651.23;103260;1254;125207;-71
2023/02/26 09:47:40;;;;;;;;;;;;;;;0.34;67.36;99661.50;103362;1254;111590;-67
2023/02/26 09:50:29;;;;;;;;;;;;;;;0.31;67.36;99665.60;101708;1257;1003569;-71
2023/02/26 09:53:18;;;;;;;;;;;;;;;0.25;67.40;99676.90;103252;1253;96440;-68
2023/02/26 09:55:49;;;;;;;;;;;;;;;0.25;67.79;99683.23;103276;1254;124398;-67
2023/02/26 09:58:37;;;;;;;;;;;;;;;0.26;68.00;99687.84;103837;1254;95675;-65
2023/02/26 10:01:25;;;;;;;;;;;;;;;0.25;67.75;99683.23;103398;1254;110980;-66
2023/02/26 10:04:07;;;;;;;;;;;;;;;0.23;67.95;99686.14;103525;1254;109109;-68
2023/02/26 10:07:00;;;;;;;;;;;;;;;0.26;68.19;99688.19;103122;1254;96431;-65
2023/02/26 10:09:31;;;;;;;;;;;;;;;0.26;68.19;99694.17;103103;1253;124208;-65
2023/02/26 10:12:20;;;;;;;;;;;;;;;0.27;68.17;99696.04;103183;1254;96446;-65
2023/02/26 10:15:12;;;;;;;;;;;;;;;0.28;68.03;99698.27;101822;1253;1126058;-64
2023/02/26 10:17:54;;;;;;;;;;;;;;;0.27;68.12;99699.63;103530;1253;108640;-64
2023/02/26 10:20:23;;;;;;;;;;;;;;;0.29;68.28;99705.10;103270;1255;124397;-64
2023/02/26 10:23:17;;;;;;;;;;;;;;;0.31;68.33;99705.62;102608;1254;1002628;-65
2023/02/26 10:25:47;;;;;;;;;;;;;;;0.32;68.35;99706.98;103271;1253;124692;-64
2023/02/26 10:28:44;;;;;;;;;;;;;;;0.32;68.14;99708.70;103392;1258;110909;-64
2023/02/26 10:31:23;;;;;;;;;;;;;;;0.29;67.45;99714.34;102568;1254;1003083;-66
2023/02/26 10:33:56;;;;;;;;;;;;;;;0.28;67.81;99716.73;103211;1254;124225;-65
2023/02/26 10:36:40;;;;;;;;;;;;;;;0.25;67.07;99716.23;103326;1253;108089;-67
2023/02/26 10:39:15;;;;;;;;;;;;;;;0.20;67.05;99725.29;103517;1254;124108;-65
2023/02/26 10:42:03;;;;;;;;;;;;;;;0.17;67.35;99732.95;103310;1257;110800;-65
2023/02/26 10:44:34;;;;;;;;;;;;;;;0.18;67.76;99741.50;103152;1253;127803;-64
2023/02/26 10:47:28;;;;;;;;;;;;;;;0.20;67.92;99744.77;103317;1253;96432;-64
2023/02/26 10:50:10;;;;;;;;;;;;;;;0.23;67.93;99749.23;103271;1254;124289;-64
2023/02/26 10:52:37;;;;;;;;;;;;;;;0.27;67.98;99750.25;104127;1253;95470;-65
2023/02/26 10:55:21;;;;;;;;;;;;;;;0.34;67.90;99750.94;103293;1254;110866;-64
2023/02/26 10:58:03;;;;;;;;;;;;;;;0.41;67.58;99759.00;102526;1257;1002706;-65
2023/02/26 11:00:41;;;;;;;;;;;;;;;0.49;68.09;99760.70;103852;1254;95039;-65
2023/02/26 11:03:23;;;;;;;;;;;;;;;0.61;67.54;99765.16;103184;1257;124999;-65
2023/02/26 11:05:52;;;;;;;;;;;;;;;0.71;66.90;99771.83;103320;1257;96488;-65
2023/02/26 11:08:40;;;;;;;;;;;;;;;0.80;66.12;99769.27;103600;1254;124026;-65
2023/02/26 11:11:09;;;;;;;;;;;;;;;0.85;65.57;99765.48;103169;1254;107115;-67
2023/02/26 11:13:48;;;;;;;;;;;;;;;0.88;64.46;99772.67;103125;1257;124306;-67
2023/02/26 11:16:34;;;;;;;;;;;;;;;0.95;64.52;99777.99;102492;1256;1002822;-67
2023/02/26 11:19:13;;;;;;;;;;;;;;;1.02;64.12;99778.83;103131;1257;96467;-64
2023/02/26 11:22:01;;;;;;;;;;;;;;;1.05;63.94;99787.72;103060;1254;123368;-65
2023/02/26 11:24:39;;;;;;;;;;;;;;;1.10;63.86;99792.02;103165;1253;106780;-66
2023/02/26 11:27:27;;;;;;;;;;;;;;;1.13;63.48;99789.10;101648;1257;1003743;-66
2023/02/26 11:29:56;;;;;;;;;;;;;;;1.13;63.10;99792.00;103302;1253;108639;-66
2023/02/26 11:32:32;;;;;;;;;;;;;;;1.13;62.78;99793.55;103204;1253;124076;-65
2023/02/26 11:35:13;;;;;;;;;;;;;;;1.10;62.21;99798.52;102748;1253;1003258;-66
2023/02/26 11:37:40;;;;;;;;;;;;;;;1.06;62.56;99804.33;104654;1253;106936;-66
2023/02/26 11:40:31;;;;;;;;;;;;;;;1.08;63.16;99807.42;104317;1253;95377;-63
2023/02/26 11:43:09;;;;;;;;;;;;;;;1.15;63.36;99809.48;103988;1253;108608;-65
2023/02/26 11:45:47;;;;;;;;;;;;;;;1.19;63.08;99813.39;104462;1253;123498;-65
2023/02/26 11:48:38;;;;;;;;;;;;;;;1.22;62.81;99816.64;104604;1257;108218;-65
2023/02/26 11:51:09;;;;;;;;;;;;;;;1.20;62.78;99822.98;104558;1253;123917;-66
2023/02/26 11:53:35;;;;;;;;;;;;;;;1.20;62.97;99825.72;104726;1253;94332;-66
2023/02/26 11:56:09;;;;;;;;;;;;;;;1.20;62.88;99825.72;103783;1254;1002939;-65
2023/02/26 11:58:39;;;;;;;;;;;;;;;1.19;62.82;99831.20;104729;1253;94630;-66
2023/02/26 12:01:10;;;;;;;;;;;;;;;1.18;62.86;99831.90;104261;1253;109567;-66
2023/02/26 12:03:49;;;;;;;;;;;;;;;1.17;62.59;99839.60;103210;1257;123466;-65
2023/02/26 12:06:34;;;;;;;;;;;;;;;1.14;62.76;99845.77;103399;1253;96434;-65
2023/02/26 12:09:21;;;;;;;;;;;;;;;1.13;62.96;99851.09;103733;1256;124258;-73
2023/02/26 12:12:24;;;;;;;;;;;;;;;1.13;63.14;99855.54;103305;1253;96515;-72
2023/02/26 12:15:02;;;;;;;;;;;;;;;1.15;63.15;99858.79;103172;1254;123328;-73
2023/02/26 12:17:51;;;;;;;;;;;;;;;1.20;63.08;99863.23;103134;1257;109246;-73
2023/02/26 12:20:42;;;;;;;;;;;;;;;1.25;63.30;99867.00;103179;1258;123340;-73
2023/02/26 12:23:28;;;;;;;;;;;;;;;1.30;63.33;99867.86;103315;1257;106933;-72
2023/02/26 12:26:23;;;;;;;;;;;;;;;1.32;63.25;99874.54;103255;1255;123760;-73
2023/02/26 12:29:15;;;;;;;;;;;;;;;1.36;63.00;99872.64;103340;1257;111197;-72
2023/02/26 12:32:10;;;;;;;;;;;;;;;1.36;62.97;99881.02;102472;1253;1003723;-73
2023/02/26 12:35:15;;;;;;;;;;;;;;;1.36;62.99;99880.01;103350;1257;96428;-72
2023/02/26 12:38:08;;;;;;;;;;;;;;;1.32;62.79;99878.13;103313;1253;123381;-73
2023/02/26 12:41:07;;;;;;;;;;;;;;;1.32;62.76;99878.82;103446;1253;96463;-72
2023/02/26 12:43:43;;;;;;;;;;;;;;;1.33;62.54;99877.62;102608;1253;1003076;-73
2023/02/26 12:46:18;;;;;;;;;;;;;;;1.31;60.91;99875.05;102461;1254;1002531;-73
2023/02/26 12:49:04;;;;;;;;;;;;;;;1.29;60.76;99879.69;103294;1254;96544;-73
2023/02/26 12:51:37;;;;;;;;;;;;;;;1.28;61.06;99880.70;102478;1254;1003110;-73
2023/02/26 12:54:13;;;;;;;;;;;;;;;1.31;60.58;99886.70;103239;1258;96467;-71
2023/02/26 12:57:00;;;;;;;;;;;;;;;1.32;60.69;99889.26;103250;1257;123711;-71
2023/02/26 12:59:48;;;;;;;;;;;;;;;1.33;59.37;99893.89;102390;1254;1003536;-72
2023/02/26 13:02:30;;;;;;;;;;;;;;;1.35;60.57;99895.77;103170;1253;123818;-72
2023/02/26 13:05:05;;;;;;;;;;;;;;;1.40;60.68;99900.20;103321;1257;108073;-73
2023/02/26 13:07:41;;;;;;;;;;;;;;;1.45;60.65;99902.79;103295;1253;96330;-71
2023/02/26 13:10:23;;;;;;;;;;;;;;;1.50;60.61;99898.15;103222;1254;111316;-71
2023/02/26 13:12:54;;;;;;;;;;;;;;;1.55;59.92;99902.60;103175;1254;109353;-72
2023/02/26 13:15:38;;;;;;;;;;;;;;;1.56;60.46;99903.79;103181;1254;123403;-72
2023/02/26 13:18:07;;;;;;;;;;;;;;;1.62;60.53;99911.33;103221;1253;107407;-72
2023/02/26 13:20:53;;;;;;;;;;;;;;;1.63;59.95;99913.05;103184;1257;123535;-72
2023/02/26 13:23:25;;;;;;;;;;;;;;;1.64;59.68;99912.71;103726;1253;110062;-71
2023/02/26 13:26:13;;;;;;;;;;;;;;;1.62;59.93;99918.88;103234;1252;124958;-71
2023/02/26 13:28:43;;;;;;;;;;;;;;;1.64;60.27;99918.02;103300;1253;96328;-71
2023/02/26 13:31:17;;;;;;;;;;;;;;;1.69;60.55;99922.80;103333;1253;108140;-71
2023/02/26 13:33:46;;;;;;;;;;;;;;;1.73;60.36;99922.63;103229;1253;123539;-71
2023/02/26 13:36:31;;;;;;;;;;;;;;;1.78;60.45;99923.64;103395;1257;110365;-71
2023/02/26 13:39:15;;;;;;;;;;;;;;;1.84;60.26;99926.73;103202;1257;123504;-71
2023/02/26 13:42:08;;;;;;;;;;;;;;;1.89;60.17;99932.20;103309;1253;96434;-72
2023/02/26 13:44:52;;;;;;;;;;;;;;;1.96;60.22;99935.09;103137;1257;123277;-71
2023/02/26 13:47:49;;;;;;;;;;;;;;;2.01;59.65;99936.13;102494;1253;1002737;-71
2023/02/26 13:50:30;;;;;;;;;;;;;;;2.02;59.73;99939.04;103232;1257;123768;-72
2023/02/26 13:53:38;;;;;;;;;;;;;;;2.05;59.16;99934.56;102515;1253;1003299;-72
2023/02/26 13:56:12;;;;;;;;;;;;;;;2.07;59.07;99935.92;103112;1253;123857;-71
2023/02/26 13:58:52;;;;;;;;;;;;;;;2.08;58.87;99940.73;103296;1257;108702;-71
2023/02/26 14:01:18;;;;;;;;;;;;;;;2.09;59.07;99948.27;102647;1253;1003813;-71
2023/02/26 14:04:22;;;;;;;;;;;;;;;2.13;59.49;99950.98;103196;1253;123341;-72
2023/02/26 14:07:13;;;;;;;;;;;;;;;2.19;59.23;99954.94;103346;1253;107183;-70
2023/02/26 14:09:56;;;;;;;;;;;;;;;2.21;59.46;99955.10;103276;1256;123504;-70
2023/02/26 14:12:42;;;;;;;;;;;;;;;2.27;59.12;99953.70;103351;1253;106709;-71
2023/02/26 14:15:37;;;;;;;;;;;;;;;2.27;59.23;99951.48;103209;1258;123607;-71
2023/02/26 14:18:25;;;;;;;;;;;;;;;2.27;59.15;99956.43;102618;1254;1002112;-72
2023/02/26 14:21:36;;;;;;;;;;;;;;;2.29;59.51;99960.05;102491;1253;1003846;-70
2023/02/26 14:24:25;;;;;;;;;;;;;;;2.30;59.30;99968.77;102637;1253;1002887;-72
2023/02/26 14:27:03;;;;;;;;;;;;;;;2.29;58.99;99973.25;103213;1253;125333;-72
2023/02/26 14:29:38;;;;;;;;;;;;;;;2.25;59.10;99971.55;103334;1257;96440;-71
2023/02/26 14:32:30;;;;;;;;;;;;;;;2.22;59.11;99974.31;103258;1253;123524;-71
2023/02/26 14:35:00;;;;;;;;;;;;;;;2.21;59.35;99976.89;103264;1257;107454;-71
2023/02/26 14:37:57;;;;;;;;;;;;;;;2.18;59.11;99977.24;103179;1253;123613;-72
2023/02/26 14:40:24;;;;;;;;;;;;;;;2.11;58.89;99979.81;103329;1253;108224;-69
2023/02/26 14:43:16;;;;;;;;;;;;;;;2.01;58.25;99984.48;103368;1257;96540;-71
2023/02/26 14:46:03;;;;;;;;;;;;;;;1.87;58.94;99992.04;103224;1253;123405;-72
2023/02/26 14:48:50;;;;;;;;;;;;;;;1.79;59.23;99998.21;103256;1253;108130;-71